This is the latest recevied weather packets stored in our database for station/object DB0NH-2. If no packets are shown the sender has not sent any weather packets the latest 1 day(s).
| Time | Temp. | Humidity | Pressure | Rain* | Wind** | Luminosity | Snow |
|---|---|---|---|---|---|---|---|
| 1778079968 | 16.11° C | 62% | 1005.5 hPa | 0 mm | - | 147 W/m² | - |
| 1778079368 | 16.11° C | 63% | 1005.6 hPa | 0 mm | - | 143 W/m² | - |
| 1778078768 | 16.11° C | 62% | 1005.5 hPa | 0 mm | - | 150 W/m² | - |
| 1778078168 | 16.67° C | 60% | 1005.5 hPa | 0 mm | - | 189 W/m² | - |
| 1778076968 | 17.78° C | 60% | 1005.7 hPa | 0 mm | - | 303 W/m² | - |
| 1778076368 | 16.67° C | 62% | 1005.7 hPa | 0 mm | - | 427 W/m² | - |
| 1778075768 | 16.67° C | 61% | 1005.8 hPa | 0 mm | - | 352 W/m² | - |
| 1778072168 | 16.67° C | 60% | 1005.9 hPa | 0 mm | - | 626 W/m² | - |
| 1778071568 | 16.67° C | 61% | 1006 hPa | 0 mm | - | 426 W/m² | - |
| 1778070968 | 17.22° C | 60% | 1006 hPa | 0 mm | - | 464 W/m² | - |
| 1778070368 | 17.22° C | 62% | 1006.1 hPa | 0 mm | - | 325 W/m² | - |
| 1778069768 | 16.67° C | 62% | 1006.1 hPa | 0 mm | - | 461 W/m² | - |
| 1778069168 | 16.67° C | 63% | 1006.1 hPa | 0 mm | - | 236 W/m² | - |
| 1778068568 | 16.67° C | 66% | 1006.3 hPa | 0 mm | - | 490 W/m² | - |
| 1778067968 | 16.67° C | 68% | 1006.2 hPa | 0 mm | - | 616 W/m² | - |
| 1778067368 | 17.78° C | 66% | 1006.3 hPa | 0 mm | - | 564 W/m² | - |
| 1778066768 | 17.22° C | 65% | 1006.3 hPa | 0 mm | - | 594 W/m² | - |
| 1778066168 | 16.11° C | 67% | 1006.4 hPa | 0 mm | - | 630 W/m² | - |
| 1778065568 | 17.22° C | 66% | 1006.5 hPa | 0 mm | - | 471 W/m² | - |
| 1778064968 | 16.67° C | 66% | 1006.4 hPa | 0 mm | - | 446 W/m² | - |
| 1778064368 | 16.11° C | 68% | 1006.5 hPa | 0 mm | - | 540 W/m² | - |
| 1778063768 | 15.56° C | 71% | 1006.4 hPa | 0 mm | - | 423 W/m² | - |
| 1778063168 | 16.11° C | 69% | 1006.5 hPa | 0 mm | - | 808 W/m² | - |
| 1778062568 | 15.56° C | 74% | 1006.6 hPa | 0 mm | - | 487 W/m² | - |
| 1778061968 | 15.56° C | 73% | 1006.7 hPa | 0 mm | - | 474 W/m² | - |
* Rain latest hour (hover to see other rain measurements)
** Current wind speed in m/s (hover to see current wind gust speed)